Pinecrest, Florida
Current Conditions -  °F | °C
As of 6:53 PM on Friday 31 Oct 2014 (Local Time) from KTMB Reporting Station
Broken Clouds Broken Clouds  
Wind Chill: 82°   Ceiling: 8500
Heat Index: 84°   Visibility: 10mi
Dew Point: 66°   Wind: 10mph
Humidity: 58%   Direction: 250°WSW
Pressure: 29.81"   Gusts: NA
Location:  25.6624°N, 80.3251°W
Report Text: KTMB 312253Z 25009KT 10SM SCT042 BKN085 28/19 A2981 RMK AO2 SLP095 T02780189
Loading
Personal Weather Stations






























Interactive Weather Map
Tropical Storm Tracking
New forecast layout! Learn more

10-Day Weather Forecast

Advertisements
Track Severe Weather on mobile